sensor_id;sensor_type;location;lat;lon;timestamp;P1;durP1;ratioP1;P2;durP2;ratioP2
47433;SDS011;33184;48.774;8.918;2023-03-21T00:02:50;1.60;;;1.10;;
47433;SDS011;33184;48.774;8.918;2023-03-21T00:08:11;2.70;;;1.50;;
47433;SDS011;33184;48.774;8.918;2023-03-21T00:13:32;3.30;;;1.40;;
47433;SDS011;33184;48.774;8.918;2023-03-21T00:18:53;3.10;;;1.37;;
47433;SDS011;33184;48.774;8.918;2023-03-21T00:24:15;2.33;;;1.23;;
47433;SDS011;33184;48.774;8.918;2023-03-21T00:29:35;2.20;;;1.40;;
47433;SDS011;33184;48.774;8.918;2023-03-21T00:34:56;2.33;;;1.50;;
47433;SDS011;33184;48.774;8.918;2023-03-21T00:40:16;2.20;;;1.17;;
47433;SDS011;33184;48.774;8.918;2023-03-21T00:45:37;2.57;;;1.20;;
47433;SDS011;33184;48.774;8.918;2023-03-21T00:50:57;2.10;;;1.50;;
47433;SDS011;33184;48.774;8.918;2023-03-21T00:56:19;4.47;;;1.43;;
47433;SDS011;33184;48.774;8.918;2023-03-21T01:01:41;2.63;;;1.70;;
47433;SDS011;33184;48.774;8.918;2023-03-21T01:07:02;1.87;;;1.50;;
47433;SDS011;33184;48.774;8.918;2023-03-21T01:12:22;2.07;;;1.60;;
47433;SDS011;33184;48.774;8.918;2023-03-21T01:17:43;4.50;;;1.40;;
47433;SDS011;33184;48.774;8.918;2023-03-21T01:23:03;6.13;;;1.30;;
47433;SDS011;33184;48.774;8.918;2023-03-21T01:28:25;1.80;;;1.60;;
47433;SDS011;33184;48.774;8.918;2023-03-21T01:33:47;2.70;;;1.50;;
47433;SDS011;33184;48.774;8.918;2023-03-21T01:39:10;2.17;;;1.47;;
47433;SDS011;33184;48.774;8.918;2023-03-21T01:44:31;2.83;;;1.50;;
47433;SDS011;33184;48.774;8.918;2023-03-21T01:50:11;2.03;;;1.50;;
47433;SDS011;33184;48.774;8.918;2023-03-21T01:55:40;1.80;;;1.47;;
47433;SDS011;33184;48.774;8.918;2023-03-21T02:01:11;2.30;;;1.40;;
47433;SDS011;33184;48.774;8.918;2023-03-21T02:06:48;1.53;;;1.40;;
47433;SDS011;33184;48.774;8.918;2023-03-21T02:12:22;2.03;;;1.73;;
47433;SDS011;33184;48.774;8.918;2023-03-21T02:29:24;3.00;;;1.50;;
47433;SDS011;33184;48.774;8.918;2023-03-21T02:40:56;2.60;;;1.10;;
47433;SDS011;33184;48.774;8.918;2023-03-21T02:46:30;1.97;;;1.37;;
47433;SDS011;33184;48.774;8.918;2023-03-21T02:51:58;2.00;;;1.53;;
47433;SDS011;33184;48.774;8.918;2023-03-21T02:57:20;3.30;;;2.50;;
47433;SDS011;33184;48.774;8.918;2023-03-21T03:02:42;3.87;;;1.40;;
47433;SDS011;33184;48.774;8.918;2023-03-21T03:19:31;2.17;;;1.50;;
47433;SDS011;33184;48.774;8.918;2023-03-21T03:25:04;2.00;;;1.30;;
47433;SDS011;33184;48.774;8.918;2023-03-21T03:30:31;2.00;;;1.20;;
47433;SDS011;33184;48.774;8.918;2023-03-21T03:35:52;2.60;;;1.20;;
47433;SDS011;33184;48.774;8.918;2023-03-21T03:41:23;3.03;;;1.57;;
47433;SDS011;33184;48.774;8.918;2023-03-21T03:46:55;1.50;;;1.30;;
47433;SDS011;33184;48.774;8.918;2023-03-21T03:52:22;5.53;;;2.47;;
47433;SDS011;33184;48.774;8.918;2023-03-21T03:57:58;3.20;;;1.60;;
47433;SDS011;33184;48.774;8.918;2023-03-21T04:03:18;1.80;;;1.23;;
47433;SDS011;33184;48.774;8.918;2023-03-21T04:08:40;2.20;;;1.70;;
47433;SDS011;33184;48.774;8.918;2023-03-21T04:14:00;2.10;;;1.50;;
47433;SDS011;33184;48.774;8.918;2023-03-21T04:19:21;3.23;;;1.40;;
47433;SDS011;33184;48.774;8.918;2023-03-21T04:24:42;2.20;;;1.57;;
47433;SDS011;33184;48.774;8.918;2023-03-21T04:30:04;3.67;;;1.50;;
47433;SDS011;33184;48.774;8.918;2023-03-21T04:35:45;3.13;;;1.70;;
47433;SDS011;33184;48.774;8.918;2023-03-21T04:41:07;1.73;;;1.60;;
47433;SDS011;33184;48.774;8.918;2023-03-21T04:46:27;3.37;;;2.00;;
47433;SDS011;33184;48.774;8.918;2023-03-21T04:51:48;1.77;;;1.30;;
47433;SDS011;33184;48.774;8.918;2023-03-21T04:57:12;2.80;;;1.95;;
47433;SDS011;33184;48.774;8.918;2023-03-21T05:02:34;1.67;;;1.40;;
47433;SDS011;33184;48.774;8.918;2023-03-21T05:07:54;2.60;;;1.40;;
47433;SDS011;33184;48.774;8.918;2023-03-21T05:13:16;2.13;;;1.43;;
47433;SDS011;33184;48.774;8.918;2023-03-21T05:18:37;3.03;;;1.90;;
47433;SDS011;33184;48.774;8.918;2023-03-21T05:24:07;3.87;;;1.60;;
47433;SDS011;33184;48.774;8.918;2023-03-21T05:34:56;6.90;;;1.80;;
47433;SDS011;33184;48.774;8.918;2023-03-21T05:40:16;1.40;;;1.30;;
47433;SDS011;33184;48.774;8.918;2023-03-21T05:45:39;4.33;;;2.13;;
47433;SDS011;33184;48.774;8.918;2023-03-21T05:51:00;5.77;;;2.13;;
47433;SDS011;33184;48.774;8.918;2023-03-21T05:56:22;2.27;;;1.53;;
47433;SDS011;33184;48.774;8.918;2023-03-21T06:02:03;2.80;;;1.80;;
47433;SDS011;33184;48.774;8.918;2023-03-21T06:07:23;4.13;;;1.83;;
47433;SDS011;33184;48.774;8.918;2023-03-21T06:12:45;3.17;;;2.13;;
47433;SDS011;33184;48.774;8.918;2023-03-21T06:18:32;6.10;;;1.83;;
47433;SDS011;33184;48.774;8.918;2023-03-21T06:24:13;4.40;;;2.40;;
47433;SDS011;33184;48.774;8.918;2023-03-21T06:29:35;4.33;;;2.00;;
47433;SDS011;33184;48.774;8.918;2023-03-21T06:34:56;5.20;;;1.80;;
47433;SDS011;33184;48.774;8.918;2023-03-21T06:40:17;7.33;;;3.80;;
47433;SDS011;33184;48.774;8.918;2023-03-21T06:45:39;9.20;;;4.77;;
47433;SDS011;33184;48.774;8.918;2023-03-21T06:51:03;4.25;;;2.15;;
47433;SDS011;33184;48.774;8.918;2023-03-21T06:56:26;2.80;;;2.07;;
47433;SDS011;33184;48.774;8.918;2023-03-21T07:01:47;5.67;;;1.83;;
47433;SDS011;33184;48.774;8.918;2023-03-21T07:07:07;2.53;;;1.50;;
47433;SDS011;33184;48.774;8.918;2023-03-21T07:12:29;5.13;;;1.30;;
47433;SDS011;33184;48.774;8.918;2023-03-21T07:18:22;3.87;;;1.80;;
47433;SDS011;33184;48.774;8.918;2023-03-21T07:23:43;2.20;;;2.00;;
47433;SDS011;33184;48.774;8.918;2023-03-21T07:29:03;2.60;;;1.40;;
47433;SDS011;33184;48.774;8.918;2023-03-21T07:34:24;2.90;;;1.40;;
47433;SDS011;33184;48.774;8.918;2023-03-21T07:39:46;3.63;;;1.43;;
47433;SDS011;33184;48.774;8.918;2023-03-21T07:45:07;2.40;;;2.20;;
47433;SDS011;33184;48.774;8.918;2023-03-21T07:50:29;1.60;;;1.40;;
47433;SDS011;33184;48.774;8.918;2023-03-21T07:55:50;3.77;;;1.40;;
47433;SDS011;33184;48.774;8.918;2023-03-21T08:01:12;3.23;;;1.30;;
47433;SDS011;33184;48.774;8.918;2023-03-21T08:06:32;2.93;;;1.40;;
47433;SDS011;33184;48.774;8.918;2023-03-21T08:11:53;2.73;;;1.50;;
47433;SDS011;33184;48.774;8.918;2023-03-21T08:17:13;4.17;;;1.60;;
47433;SDS011;33184;48.774;8.918;2023-03-21T08:22:35;3.07;;;1.40;;
47433;SDS011;33184;48.774;8.918;2023-03-21T08:27:55;2.17;;;1.10;;
47433;SDS011;33184;48.774;8.918;2023-03-21T08:33:16;2.60;;;1.50;;
47433;SDS011;33184;48.774;8.918;2023-03-21T08:38:37;2.20;;;1.10;;
47433;SDS011;33184;48.774;8.918;2023-03-21T08:43:58;1.13;;;0.80;;
47433;SDS011;33184;48.774;8.918;2023-03-21T08:49:19;3.10;;;1.17;;
47433;SDS011;33184;48.774;8.918;2023-03-21T08:54:39;4.50;;;1.37;;
47433;SDS011;33184;48.774;8.918;2023-03-21T09:00:01;1.10;;;0.60;;
47433;SDS011;33184;48.774;8.918;2023-03-21T09:05:32;2.27;;;0.90;;
47433;SDS011;33184;48.774;8.918;2023-03-21T09:10:53;2.70;;;1.00;;
47433;SDS011;33184;48.774;8.918;2023-03-21T09:16:14;3.87;;;1.03;;
47433;SDS011;33184;48.774;8.918;2023-03-21T09:21:35;1.13;;;0.80;;
47433;SDS011;33184;48.774;8.918;2023-03-21T09:26:55;2.07;;;1.00;;
47433;SDS011;33184;48.774;8.918;2023-03-21T09:32:16;3.50;;;1.20;;
47433;SDS011;33184;48.774;8.918;2023-03-21T09:37:37;1.80;;;1.10;;
47433;SDS011;33184;48.774;8.918;2023-03-21T09:43:48;2.63;;;1.10;;
47433;SDS011;33184;48.774;8.918;2023-03-21T09:48:55;1.63;;;1.02;;
47433;SDS011;33184;48.774;8.918;2023-03-21T09:54:20;2.97;;;0.93;;
47433;SDS011;33184;48.774;8.918;2023-03-21T09:59:44;1.48;;;1.00;;
47433;SDS011;33184;48.774;8.918;2023-03-21T10:05:23;2.20;;;1.00;;
47433;SDS011;33184;48.774;8.918;2023-03-21T10:10:48;2.80;;;0.90;;
47433;SDS011;33184;48.774;8.918;2023-03-21T10:16:13;6.93;;;1.10;;
47433;SDS011;33184;48.774;8.918;2023-03-21T10:21:37;0.63;;;0.63;;
47433;SDS011;33184;48.774;8.918;2023-03-21T10:27:02;1.13;;;1.00;;
47433;SDS011;33184;48.774;8.918;2023-03-21T10:32:23;3.58;;;1.27;;
47433;SDS011;33184;48.774;8.918;2023-03-21T10:37:44;1.63;;;0.95;;
47433;SDS011;33184;48.774;8.918;2023-03-21T10:43:19;1.90;;;1.25;;
47433;SDS011;33184;48.774;8.918;2023-03-21T10:48:53;3.72;;;0.80;;
47433;SDS011;33184;48.774;8.918;2023-03-21T10:54:14;4.00;;;0.98;;
47433;SDS011;33184;48.774;8.918;2023-03-21T10:59:59;2.08;;;1.83;;
47433;SDS011;33184;48.774;8.918;2023-03-21T11:05:25;2.38;;;1.23;;
47433;SDS011;33184;48.774;8.918;2023-03-21T11:10:59;5.20;;;1.42;;
47433;SDS011;33184;48.774;8.918;2023-03-21T11:16:24;2.40;;;1.35;;
47433;SDS011;33184;48.774;8.918;2023-03-21T11:21:50;4.90;;;1.50;;
47433;SDS011;33184;48.774;8.918;2023-03-21T11:27:10;1.58;;;1.20;;
47433;SDS011;33184;48.774;8.918;2023-03-21T11:32:35;3.85;;;1.23;;
47433;SDS011;33184;48.774;8.918;2023-03-21T11:37:57;2.40;;;1.00;;
47433;SDS011;33184;48.774;8.918;2023-03-21T11:48:39;2.22;;;1.65;;
47433;SDS011;33184;48.774;8.918;2023-03-21T12:05:39;1.92;;;1.08;;
47433;SDS011;33184;48.774;8.918;2023-03-21T12:16:42;2.83;;;0.70;;
47433;SDS011;33184;48.774;8.918;2023-03-21T12:33:54;1.52;;;0.50;;
47433;SDS011;33184;48.774;8.918;2023-03-21T12:39:29;4.85;;;0.70;;
47433;SDS011;33184;48.774;8.918;2023-03-21T12:45:02;1.92;;;0.68;;
47433;SDS011;33184;48.774;8.918;2023-03-21T12:50:31;3.17;;;0.60;;
47433;SDS011;33184;48.774;8.918;2023-03-21T12:55:58;0.60;;;0.60;;
47433;SDS011;33184;48.774;8.918;2023-03-21T13:01:24;0.60;;;0.50;;
47433;SDS011;33184;48.774;8.918;2023-03-21T13:06:45;1.65;;;0.50;;
47433;SDS011;33184;48.774;8.918;2023-03-21T13:12:32;0.52;;;0.30;;
47433;SDS011;33184;48.774;8.918;2023-03-21T13:23:37;2.08;;;0.50;;
47433;SDS011;33184;48.774;8.918;2023-03-21T13:28:58;2.15;;;0.38;;
47433;SDS011;33184;48.774;8.918;2023-03-21T13:34:20;1.10;;;0.38;;
47433;SDS011;33184;48.774;8.918;2023-03-21T13:39:46;1.33;;;0.47;;
47433;SDS011;33184;48.774;8.918;2023-03-21T13:45:10;0.40;;;0.35;;
47433;SDS011;33184;48.774;8.918;2023-03-21T13:50:49;0.65;;;0.47;;
47433;SDS011;33184;48.774;8.918;2023-03-21T14:01:39;1.02;;;0.40;;
47433;SDS011;33184;48.774;8.918;2023-03-21T14:07:03;1.35;;;0.65;;
47433;SDS011;33184;48.774;8.918;2023-03-21T14:12:28;3.97;;;0.50;;
47433;SDS011;33184;48.774;8.918;2023-03-21T14:17:55;0.77;;;0.50;;
47433;SDS011;33184;48.774;8.918;2023-03-21T14:23:18;0.98;;;0.70;;
47433;SDS011;33184;48.774;8.918;2023-03-21T14:28:45;0.60;;;0.50;;
47433;SDS011;33184;48.774;8.918;2023-03-21T14:34:09;1.25;;;0.50;;
47433;SDS011;33184;48.774;8.918;2023-03-21T14:39:30;1.02;;;0.60;;
47433;SDS011;33184;48.774;8.918;2023-03-21T14:44:52;2.30;;;0.70;;
47433;SDS011;33184;48.774;8.918;2023-03-21T14:50:18;2.70;;;0.90;;
47433;SDS011;33184;48.774;8.918;2023-03-21T14:55:46;2.80;;;0.65;;
47433;SDS011;33184;48.774;8.918;2023-03-21T15:01:26;2.35;;;0.70;;
47433;SDS011;33184;48.774;8.918;2023-03-21T15:06:59;2.75;;;1.10;;
47433;SDS011;33184;48.774;8.918;2023-03-21T15:12:24;3.22;;;0.82;;
47433;SDS011;33184;48.774;8.918;2023-03-21T15:17:44;1.05;;;0.70;;
47433;SDS011;33184;48.774;8.918;2023-03-21T15:23:10;2.13;;;0.70;;
47433;SDS011;33184;48.774;8.918;2023-03-21T15:28:40;2.23;;;0.90;;
47433;SDS011;33184;48.774;8.918;2023-03-21T15:34:02;2.40;;;0.90;;
47433;SDS011;33184;48.774;8.918;2023-03-21T15:39:23;3.90;;;0.80;;
47433;SDS011;33184;48.774;8.918;2023-03-21T15:44:46;1.70;;;0.93;;
47433;SDS011;33184;48.774;8.918;2023-03-21T15:50:17;3.28;;;0.70;;
47433;SDS011;33184;48.774;8.918;2023-03-21T15:55:48;2.33;;;1.05;;
47433;SDS011;33184;48.774;8.918;2023-03-21T16:01:11;2.83;;;0.82;;
47433;SDS011;33184;48.774;8.918;2023-03-21T16:06:37;2.30;;;0.90;;
47433;SDS011;33184;48.774;8.918;2023-03-21T16:11:58;1.42;;;0.70;;
47433;SDS011;33184;48.774;8.918;2023-03-21T16:17:34;3.70;;;0.95;;
47433;SDS011;33184;48.774;8.918;2023-03-21T16:23:00;3.55;;;1.23;;
47433;SDS011;33184;48.774;8.918;2023-03-21T16:28:20;2.67;;;0.73;;
47433;SDS011;33184;48.774;8.918;2023-03-21T16:33:41;1.85;;;1.20;;
47433;SDS011;33184;48.774;8.918;2023-03-21T16:44:35;3.45;;;0.60;;
47433;SDS011;33184;48.774;8.918;2023-03-21T16:49:58;2.65;;;0.60;;
47433;SDS011;33184;48.774;8.918;2023-03-21T16:55:18;1.63;;;0.60;;
47433;SDS011;33184;48.774;8.918;2023-03-21T17:00:39;2.25;;;0.60;;
47433;SDS011;33184;48.774;8.918;2023-03-21T17:06:00;3.50;;;0.65;;
47433;SDS011;33184;48.774;8.918;2023-03-21T17:11:22;1.13;;;0.70;;
47433;SDS011;33184;48.774;8.918;2023-03-21T17:16:43;1.10;;;0.60;;
47433;SDS011;33184;48.774;8.918;2023-03-21T17:22:05;2.05;;;0.73;;
47433;SDS011;33184;48.774;8.918;2023-03-21T17:27:26;4.30;;;0.70;;
47433;SDS011;33184;48.774;8.918;2023-03-21T17:32:47;1.80;;;0.98;;
47433;SDS011;33184;48.774;8.918;2023-03-21T17:38:11;4.95;;;0.93;;
47433;SDS011;33184;48.774;8.918;2023-03-21T17:43:35;2.88;;;0.95;;
47433;SDS011;33184;48.774;8.918;2023-03-21T17:48:56;5.22;;;1.52;;
47433;SDS011;33184;48.774;8.918;2023-03-21T17:54:16;2.92;;;1.20;;
47433;SDS011;33184;48.774;8.918;2023-03-21T17:59:37;7.10;;;1.42;;
47433;SDS011;33184;48.774;8.918;2023-03-21T18:04:57;3.20;;;1.05;;
47433;SDS011;33184;48.774;8.918;2023-03-21T18:10:19;6.10;;;1.90;;
47433;SDS011;33184;48.774;8.918;2023-03-21T18:15:42;5.50;;;1.50;;
47433;SDS011;33184;48.774;8.918;2023-03-21T18:21:02;3.65;;;1.40;;
47433;SDS011;33184;48.774;8.918;2023-03-21T18:26:23;7.32;;;1.88;;
47433;SDS011;33184;48.774;8.918;2023-03-21T18:31:43;6.63;;;1.58;;
47433;SDS011;33184;48.774;8.918;2023-03-21T18:37:05;8.88;;;3.03;;
47433;SDS011;33184;48.774;8.918;2023-03-21T18:42:26;3.03;;;0.98;;
47433;SDS011;33184;48.774;8.918;2023-03-21T18:47:47;7.15;;;3.03;;
47433;SDS011;33184;48.774;8.918;2023-03-21T18:53:08;1.65;;;1.10;;
47433;SDS011;33184;48.774;8.918;2023-03-21T18:58:29;2.30;;;1.27;;
47433;SDS011;33184;48.774;8.918;2023-03-21T19:03:49;4.60;;;1.42;;
47433;SDS011;33184;48.774;8.918;2023-03-21T19:09:10;2.55;;;2.35;;
47433;SDS011;33184;48.774;8.918;2023-03-21T19:14:33;2.38;;;1.13;;
47433;SDS011;33184;48.774;8.918;2023-03-21T19:19:53;5.25;;;4.70;;
47433;SDS011;33184;48.774;8.918;2023-03-21T19:25:14;10.05;;;7.10;;
47433;SDS011;33184;48.774;8.918;2023-03-21T19:30:35;9.68;;;4.82;;
47433;SDS011;33184;48.774;8.918;2023-03-21T19:35:56;14.30;;;10.45;;
47433;SDS011;33184;48.774;8.918;2023-03-21T19:41:18;4.38;;;3.00;;
47433;SDS011;33184;48.774;8.918;2023-03-21T19:46:39;3.85;;;2.35;;
47433;SDS011;33184;48.774;8.918;2023-03-21T19:51:59;2.40;;;1.30;;
47433;SDS011;33184;48.774;8.918;2023-03-21T19:57:20;2.30;;;1.30;;
47433;SDS011;33184;48.774;8.918;2023-03-21T20:02:42;1.85;;;1.17;;
47433;SDS011;33184;48.774;8.918;2023-03-21T20:08:04;2.15;;;0.90;;
47433;SDS011;33184;48.774;8.918;2023-03-21T20:13:25;1.52;;;0.95;;
47433;SDS011;33184;48.774;8.918;2023-03-21T20:18:46;2.97;;;1.00;;
47433;SDS011;33184;48.774;8.918;2023-03-21T20:24:06;1.38;;;1.27;;
47433;SDS011;33184;48.774;8.918;2023-03-21T20:29:27;4.18;;;2.65;;
47433;SDS011;33184;48.774;8.918;2023-03-21T20:34:48;3.15;;;2.20;;
47433;SDS011;33184;48.774;8.918;2023-03-21T20:40:09;6.47;;;5.47;;
47433;SDS011;33184;48.774;8.918;2023-03-21T20:45:31;2.95;;;2.55;;
47433;SDS011;33184;48.774;8.918;2023-03-21T20:50:52;3.35;;;1.90;;
47433;SDS011;33184;48.774;8.918;2023-03-21T20:56:12;5.45;;;2.63;;
47433;SDS011;33184;48.774;8.918;2023-03-21T21:01:33;6.05;;;2.97;;
47433;SDS011;33184;48.774;8.918;2023-03-21T21:06:53;5.47;;;4.20;;
47433;SDS011;33184;48.774;8.918;2023-03-21T21:12:14;6.53;;;3.42;;
47433;SDS011;33184;48.774;8.918;2023-03-21T21:17:36;8.68;;;3.30;;
47433;SDS011;33184;48.774;8.918;2023-03-21T21:22:57;6.18;;;3.72;;
47433;SDS011;33184;48.774;8.918;2023-03-21T21:28:18;4.05;;;2.00;;
47433;SDS011;33184;48.774;8.918;2023-03-21T21:33:40;5.85;;;2.25;;
47433;SDS011;33184;48.774;8.918;2023-03-21T21:39:01;5.03;;;2.78;;
47433;SDS011;33184;48.774;8.918;2023-03-21T21:44:23;6.32;;;2.30;;
47433;SDS011;33184;48.774;8.918;2023-03-21T21:49:43;3.15;;;2.10;;
47433;SDS011;33184;48.774;8.918;2023-03-21T21:55:04;5.80;;;3.20;;
47433;SDS011;33184;48.774;8.918;2023-03-21T22:00:26;7.15;;;3.95;;
47433;SDS011;33184;48.774;8.918;2023-03-21T22:05:50;7.07;;;3.55;;
47433;SDS011;33184;48.774;8.918;2023-03-21T22:11:12;5.10;;;4.43;;
47433;SDS011;33184;48.774;8.918;2023-03-21T22:16:33;4.47;;;2.88;;
47433;SDS011;33184;48.774;8.918;2023-03-21T22:21:54;5.38;;;2.70;;
47433;SDS011;33184;48.774;8.918;2023-03-21T22:27:21;5.10;;;3.20;;
47433;SDS011;33184;48.774;8.918;2023-03-21T22:32:42;11.32;;;6.82;;
47433;SDS011;33184;48.774;8.918;2023-03-21T22:38:04;4.25;;;3.42;;
47433;SDS011;33184;48.774;8.918;2023-03-21T22:43:25;6.38;;;3.65;;
47433;SDS011;33184;48.774;8.918;2023-03-21T22:48:46;4.55;;;1.55;;
47433;SDS011;33184;48.774;8.918;2023-03-21T22:54:07;2.65;;;1.95;;
47433;SDS011;33184;48.774;8.918;2023-03-21T22:59:28;2.08;;;1.35;;
47433;SDS011;33184;48.774;8.918;2023-03-21T23:04:50;4.30;;;2.53;;
47433;SDS011;33184;48.774;8.918;2023-03-21T23:10:10;6.38;;;2.55;;
47433;SDS011;33184;48.774;8.918;2023-03-21T23:15:31;4.43;;;1.88;;
47433;SDS011;33184;48.774;8.918;2023-03-21T23:20:51;3.28;;;2.20;;
47433;SDS011;33184;48.774;8.918;2023-03-21T23:26:12;3.00;;;1.77;;
47433;SDS011;33184;48.774;8.918;2023-03-21T23:31:33;2.63;;;1.55;;
47433;SDS011;33184;48.774;8.918;2023-03-21T23:36:54;2.73;;;1.60;;
47433;SDS011;33184;48.774;8.918;2023-03-21T23:42:15;3.03;;;2.33;;
47433;SDS011;33184;48.774;8.918;2023-03-21T23:47:35;2.53;;;1.53;;
47433;SDS011;33184;48.774;8.918;2023-03-21T23:52:56;2.93;;;1.60;;
47433;SDS011;33184;48.774;8.918;2023-03-21T23:58:18;3.27;;;1.70;;
